Time;durP1;ratioP1;P1;durP2;ratioP2;P2;SDS_P1;SDS_P2;PMS_P1;PMS_P2;Temp;Humidity;BMP_temperature;BMP_pressure;BME280_temperature;BME280_humidity;BME280_pressure;Samples;Min_cycle;Max_cycle;Signal;HPM_P1;HPM_P2
2022/10/02 00:02:35;;;;;;;4.25;1.40;;;13.10;99.90;;;;;;4985931;28;20062;-75
2022/10/02 00:05:06;;;;;;;5.40;1.20;;;13.00;99.90;;;;;;4996679;28;20022;-74
2022/10/02 00:07:57;;;;;;;7.35;2.00;;;13.00;99.90;;;;;;4982712;28;20030;-75
2022/10/02 00:10:43;;;;;;;6.47;2.00;;;13.00;99.90;;;;;;4991275;28;20050;-75
2022/10/02 00:13:25;;;;;;;5.75;1.90;;;13.00;99.90;;;;;;4984140;28;20121;-75
2022/10/02 00:15:53;;;;;;;3.58;1.30;;;13.00;99.90;;;;;;4984468;28;20014;-75
2022/10/02 00:18:24;;;;;;;6.10;1.58;;;13.00;99.90;;;;;;4987563;28;20023;-74
2022/10/02 00:21:08;;;;;;;5.07;1.83;;;13.00;99.90;;;;;;4980856;28;20019;-75
2022/10/02 00:23:44;;;;;;;4.28;1.20;;;13.00;99.90;;;;;;5005066;28;20032;-75
2022/10/02 00:26:38;;;;;;;3.88;1.33;;;13.00;99.90;;;;;;4996573;28;20034;-75
2022/10/02 00:29:23;;;;;;;;;;;13.00;99.90;;;;;;4983373;28;20022;-75
2022/10/02 00:32:26;;;;;;;4.78;1.60;;;13.00;99.90;;;;;;5000203;28;19909;-75
2022/10/02 00:35:19;;;;;;;6.25;1.40;;;13.00;99.90;;;;;;4985585;28;20465;-75
2022/10/02 00:38:07;;;;;;;5.70;1.65;;;13.00;99.90;;;;;;5001488;28;20076;-74
2022/10/02 00:40:44;;;;;;;7.00;2.10;;;12.90;99.90;;;;;;4982546;28;20031;-74
2022/10/02 00:43:30;;;;;;;6.45;1.88;;;12.90;99.90;;;;;;4985158;28;20383;-75
2022/10/02 00:46:19;;;;;;;4.93;1.65;;;12.90;99.90;;;;;;4984437;28;20069;-74
2022/10/02 00:48:51;;;;;;;4.47;1.23;;;12.90;99.90;;;;;;4984669;28;20018;-74
2022/10/02 00:51:35;;;;;;;5.60;1.40;;;12.90;99.90;;;;;;4986238;28;20030;-75
2022/10/02 00:54:07;;;;;;;7.00;1.95;;;12.90;99.90;;;;;;4989811;28;20028;-74
2022/10/02 00:57:03;;;;;;;5.55;1.67;;;12.90;99.90;;;;;;4985019;28;20122;-75
2022/10/02 01:00:06;;;;;;;5.60;1.50;;;12.90;99.90;;;;;;4972772;28;20031;-76
2022/10/02 01:02:59;;;;;;;6.53;1.75;;;13.00;99.90;;;;;;4971348;28;20027;-76
2022/10/02 01:05:33;;;;;;;5.45;1.30;;;12.90;99.90;;;;;;4976557;28;20054;-76
2022/10/02 01:07:59;;;;;;;;;;;12.90;99.90;;;;;;4976605;28;20023;-76
2022/10/02 01:10:26;;;;;;;5.85;1.70;;;12.90;99.90;;;;;;4974992;28;19906;-76
2022/10/02 01:12:56;;;;;;;5.50;1.60;;;12.90;99.90;;;;;;4976120;28;20484;-77
2022/10/02 01:15:28;;;;;;;4.22;1.20;;;12.90;99.90;;;;;;4976117;28;20523;-75
2022/10/02 01:17:54;;;;;;;5.90;1.40;;;12.90;99.90;;;;;;4974695;28;20488;-77
2022/10/02 01:20:35;;;;;;;9.93;1.73;;;12.90;99.90;;;;;;4976196;28;20038;-76
2022/10/02 01:23:14;;;;;;;7.05;1.35;;;12.90;99.90;;;;;;4974830;28;20031;-76
2022/10/02 01:25:43;;;;;;;5.57;1.35;;;12.90;99.90;;;;;;4974558;28;20030;-77
2022/10/02 01:28:10;;;;;;;6.28;1.60;;;12.90;99.90;;;;;;4975639;28;20141;-76
2022/10/02 01:30:43;;;;;;;6.50;1.50;;;12.90;99.90;;;;;;4975761;28;20372;-77
2022/10/02 01:33:24;;;;;;;4.37;1.53;;;12.90;99.90;;;;;;4974574;28;20030;-77
2022/10/02 01:35:50;;;;;;;5.20;1.50;;;12.90;99.90;;;;;;4974425;28;20019;-77
2022/10/02 01:38:22;;;;;;;9.02;1.85;;;12.90;99.90;;;;;;4974441;28;20117;-77
2022/10/02 01:40:48;;;;;;;4.38;1.48;;;12.90;99.90;;;;;;4974310;28;20095;-76
2022/10/02 01:43:33;;;;;;;5.32;1.10;;;12.90;99.90;;;;;;4993548;28;20451;-77
2022/10/02 01:46:36;;;;;;;4.25;1.20;;;12.90;99.90;;;;;;4975563;28;20161;-77
2022/10/02 01:49:10;;;;;;;6.70;1.30;;;12.90;99.90;;;;;;4974152;28;20122;-77
2022/10/02 01:52:10;;;;;;;5.97;1.80;;;12.90;99.90;;;;;;4974099;28;20518;-76
2022/10/02 01:55:15;;;;;;;8.30;1.10;;;12.90;99.90;;;;;;4974813;28;20162;-77
2022/10/02 01:58:39;;;;;;;10.50;1.52;;;12.90;99.90;;;;;;4976088;28;20133;-77
2022/10/02 02:01:19;;;;;;;7.65;1.30;;;12.90;99.90;;;;;;4949256;29;20086;-78
2022/10/02 02:03:59;;;;;;;4.03;1.52;;;13.00;99.90;;;;;;4954391;29;20400;-77
2022/10/02 02:06:50;;;;;;;6.68;1.73;;;13.00;99.90;;;;;;4987414;28;20114;-78
2022/10/02 02:09:39;;;;;;;7.55;1.25;;;13.00;99.90;;;;;;4996235;28;20518;-77
2022/10/02 02:12:19;;;;;;;4.85;1.15;;;13.00;99.90;;;;;;4994285;28;20018;-75
2022/10/02 02:14:54;;;;;;;10.10;1.75;;;13.10;99.90;;;;;;4992729;28;20022;-77
2022/10/02 02:17:29;;;;;;;7.80;1.60;;;13.00;99.90;;;;;;4994396;28;20018;-77
2022/10/02 02:20:26;;;;;;;6.35;1.30;;;13.10;99.90;;;;;;4994517;28;20495;-76
2022/10/02 02:22:54;;;;;;;6.78;1.85;;;13.10;99.90;;;;;;4990277;28;20037;-77
2022/10/02 02:25:28;;;;;;;6.07;1.13;;;13.10;99.90;;;;;;5004202;28;20052;-76
2022/10/02 02:27:58;;;;;;;;;;;13.10;99.90;;;;;;4999319;28;20018;-76
2022/10/02 02:30:30;;;;;;;7.20;1.55;;;13.20;99.90;;;;;;4997559;28;20000;-78
2022/10/02 02:33:11;;;;;;;3.55;1.10;;;13.20;99.90;;;;;;5013938;28;20116;-75
2022/10/02 02:35:44;;;;;;;8.60;1.45;;;13.20;99.90;;;;;;5004981;28;20034;-77
2022/10/02 02:38:20;;;;;;;8.80;1.50;;;13.20;99.90;;;;;;4995069;28;20019;-77
2022/10/02 02:41:12;;;;;;;8.00;1.58;;;13.20;99.90;;;;;;4994873;28;20050;-76
2022/10/02 02:44:05;;;;;;;8.57;1.50;;;13.20;99.90;;;;;;4996316;28;20479;-76
2022/10/02 02:47:05;;;;;;;12.43;1.63;;;13.20;99.90;;;;;;4994092;28;20050;-77
2022/10/02 02:49:51;;;;;;;7.95;1.17;;;13.20;99.90;;;;;;4993927;28;20376;-76
2022/10/02 02:52:44;;;;;;;5.28;1.20;;;13.20;99.90;;;;;;4992695;28;20027;-77
2022/10/02 02:55:19;;;;;;;4.65;1.38;;;13.20;99.90;;;;;;4993911;28;20014;-77
2022/10/02 02:58:14;;;;;;;6.55;1.52;;;13.20;99.90;;;;;;4992422;28;20041;-77
2022/10/02 03:00:40;;;;;;;6.05;1.30;;;13.20;99.90;;;;;;4974637;28;20042;-76
2022/10/02 03:03:12;;;;;;;4.90;1.38;;;13.20;99.90;;;;;;4973038;28;20030;-77
2022/10/02 03:05:52;;;;;;;4.78;1.30;;;13.20;99.90;;;;;;4989191;28;20037;-76
2022/10/02 03:08:28;;;;;;;6.25;1.90;;;13.30;99.90;;;;;;4974231;28;20492;-76
2022/10/02 03:11:34;;;;;;;6.13;1.30;;;13.30;99.90;;;;;;4972989;28;20026;-76
2022/10/02 03:14:34;;;;;;;8.55;2.30;;;13.30;99.90;;;;;;4974284;28;20034;-77
2022/10/02 03:17:37;;;;;;;3.80;1.02;;;13.30;99.90;;;;;;4972751;28;20506;-76
2022/10/02 03:20:26;;;;;;;4.35;1.10;;;13.30;99.90;;;;;;4974272;28;20487;-76
2022/10/02 03:22:54;;;;;;;5.70;1.17;;;13.30;99.90;;;;;;4973798;28;20500;-75
2022/10/02 03:25:58;;;;;;;5.65;1.50;;;13.40;99.90;;;;;;4973920;28;20106;-76
2022/10/02 03:28:32;;;;;;;5.25;1.10;;;13.40;99.90;;;;;;4974607;28;20027;-75
2022/10/02 03:30:57;;;;;;;;;;;13.40;99.90;;;;;;4980012;28;20117;-77
2022/10/02 03:33:27;;;;;;;7.40;1.27;;;13.40;99.90;;;;;;4978784;28;19957;-78
2022/10/02 03:35:57;;;;;;;5.32;1.20;;;13.40;99.90;;;;;;4976205;28;20476;-77
2022/10/02 03:38:24;;;;;;;6.60;1.50;;;13.40;99.90;;;;;;4974155;28;20023;-78
2022/10/02 03:40:51;;;;;;;3.85;1.20;;;13.40;99.90;;;;;;4975802;28;20030;-76
2022/10/02 03:43:21;;;;;;;6.25;1.88;;;13.40;99.90;;;;;;4973878;28;20113;-77
2022/10/02 03:45:47;;;;;;;5.88;1.20;;;13.50;99.90;;;;;;4977387;28;20061;-78
2022/10/02 03:48:13;;;;;;;6.85;1.30;;;13.50;99.90;;;;;;4979363;28;20027;-77
2022/10/02 03:50:45;;;;;;;3.78;1.58;;;13.50;99.90;;;;;;4976679;28;20399;-77
2022/10/02 03:53:17;;;;;;;5.75;1.20;;;13.50;99.90;;;;;;4975344;28;20077;-77
2022/10/02 03:56:07;;;;;;;9.60;1.88;;;13.50;99.90;;;;;;4975219;28;20487;-77
2022/10/02 03:58:37;;;;;;;5.43;1.65;;;13.50;99.90;;;;;;4955075;28;20412;-77
2022/10/02 04:01:24;;;;;;;8.02;1.77;;;13.60;99.90;;;;;;4973719;28;20019;-77
2022/10/02 04:04:20;;;;;;;8.13;1.60;;;13.60;99.90;;;;;;4977959;28;20062;-78
2022/10/02 04:07:15;;;;;;;10.15;1.65;;;13.60;99.90;;;;;;4999276;28;20520;-78
2022/10/02 04:09:59;;;;;;;;;;;13.60;99.90;;;;;;4973925;28;20039;-77
2022/10/02 04:12:39;;;;;;;9.10;1.33;;;13.60;99.90;;;;;;4973067;28;20061;-77
2022/10/02 04:15:15;;;;;;;5.18;1.25;;;13.60;99.90;;;;;;4972126;28;20402;-76
2022/10/02 04:17:46;;;;;;;9.00;1.38;;;13.60;99.90;;;;;;4973302;28;20026;-77
2022/10/02 04:20:33;;;;;;;5.95;1.13;;;13.60;99.90;;;;;;4972021;28;20077;-76
2022/10/02 04:23:27;;;;;;;5.55;1.15;;;13.60;99.90;;;;;;4976595;28;20098;-77
2022/10/02 04:26:01;;;;;;;7.20;1.48;;;13.60;99.90;;;;;;4973875;28;20030;-77
2022/10/02 04:28:38;;;;;;;7.32;1.60;;;13.60;99.90;;;;;;4973286;28;20031;-77
2022/10/02 04:31:26;;;;;;;8.23;1.20;;;13.60;99.90;;;;;;4973342;28;20038;-77
2022/10/02 04:33:53;;;;;;;5.80;1.25;;;13.60;99.90;;;;;;4964187;28;20070;-77
2022/10/02 04:36:57;;;;;;;6.55;1.27;;;13.60;99.90;;;;;;4988324;28;20057;-77
2022/10/02 04:39:56;;;;;;;6.43;1.40;;;13.60;99.90;;;;;;4972738;28;20444;-76
2022/10/02 04:42:40;;;;;;;6.53;1.50;;;13.60;99.90;;;;;;4947080;28;20126;-77
2022/10/02 04:45:33;;;;;;;6.65;1.38;;;13.60;99.90;;;;;;4977777;28;20023;-75
2022/10/02 04:48:54;;;;;;;7.20;1.55;;;13.60;99.90;;;;;;4977019;28;20022;-77
2022/10/02 04:51:37;;;;;;;6.68;1.70;;;13.60;99.90;;;;;;4952158;28;20041;-77
2022/10/02 04:54:38;;;;;;;4.25;1.25;;;13.60;99.90;;;;;;4977593;28;20027;-77
2022/10/02 04:57:30;;;;;;;6.47;1.77;;;13.60;99.90;;;;;;4920301;29;20051;-78
2022/10/02 05:00:12;;;;;;;4.03;1.10;;;13.60;99.90;;;;;;4978410;28;20428;-78
2022/10/02 05:02:56;;;;;;;5.55;1.40;;;13.60;99.90;;;;;;4979299;28;20098;-78
2022/10/02 05:05:40;;;;;;;;;;;13.60;99.90;;;;;;4979192;28;20027;-77
2022/10/02 05:08:30;;;;;;;9.73;1.90;;;13.60;99.90;;;;;;4978295;28;20429;-77
2022/10/02 05:11:35;;;;;;;4.68;1.67;;;13.60;99.90;;;;;;4993483;28;20279;-77
2022/10/02 05:14:38;;;;;;;5.43;1.88;;;13.60;99.90;;;;;;4996112;28;20026;-77
2022/10/02 05:17:33;;;;;;;6.85;1.83;;;13.60;99.90;;;;;;4996839;28;20026;-77
2022/10/02 05:20:17;;;;;;;5.55;1.13;;;13.60;99.90;;;;;;5012749;28;20034;-77
2022/10/02 05:23:20;;;;;;;5.47;1.00;;;13.60;99.90;;;;;;5012443;28;20118;-78
2022/10/02 05:26:34;;;;;;;7.68;2.25;;;13.60;99.90;;;;;;5011843;28;20061;-77
2022/10/02 05:29:26;;;;;;;4.40;1.45;;;13.60;99.90;;;;;;4989007;28;20078;-75
2022/10/02 05:31:51;;;;;;;8.20;1.45;;;13.60;99.90;;;;;;4999729;28;20030;-76
2022/10/02 05:34:26;;;;;;;7.00;1.60;;;13.60;99.90;;;;;;4995465;28;20033;-77
2022/10/02 05:37:12;;;;;;;4.78;1.42;;;13.60;99.90;;;;;;5012804;28;20035;-79
2022/10/02 05:40:02;;;;;;;5.60;1.38;;;13.60;99.90;;;;;;5002803;28;20373;-78
2022/10/02 05:42:35;;;;;;;6.70;1.65;;;13.60;99.90;;;;;;4999285;28;20388;-78
2022/10/02 05:45:26;;;;;;;6.22;1.60;;;13.60;99.90;;;;;;5013307;28;20403;-77
2022/10/02 05:48:21;;;;;;;6.40;1.75;;;13.60;99.90;;;;;;5013726;28;20030;-78
2022/10/02 05:50:51;;;;;;;7.93;1.63;;;13.60;99.90;;;;;;4969278;28;20356;-77
2022/10/02 05:53:41;;;;;;;5.53;1.90;;;13.60;99.90;;;;;;5014735;28;20041;-76
2022/10/02 05:56:31;;;;;;;8.50;1.40;;;13.60;99.90;;;;;;4997866;28;20037;-78
2022/10/02 05:59:04;;;;;;;4.03;1.50;;;13.60;99.90;;;;;;5013049;28;20105;-76
2022/10/02 06:01:41;;;;;;;6.25;1.50;;;13.60;99.90;;;;;;5013117;28;20043;-77
2022/10/02 06:04:38;;;;;;;8.35;1.80;;;13.60;99.90;;;;;;4998420;28;20027;-78
2022/10/02 06:07:08;;;;;;;9.77;1.85;;;13.60;99.90;;;;;;5002180;28;20022;-77
2022/10/02 06:10:09;;;;;;;8.60;2.28;;;13.60;99.90;;;;;;5002120;28;20030;-76
2022/10/02 06:12:45;;;;;;;8.82;2.88;;;13.60;99.90;;;;;;4946976;28;20125;-78
2022/10/02 06:15:30;;;;;;;9.70;3.00;;;13.60;99.90;;;;;;4996326;28;20390;-77
2022/10/02 06:18:05;;;;;;;7.97;2.65;;;13.60;99.90;;;;;;4996018;28;20085;-76
2022/10/02 06:20:58;;;;;;;7.82;2.15;;;13.60;99.90;;;;;;4992091;28;20436;-78
2022/10/02 06:23:55;;;;;;;9.68;1.58;;;13.60;99.90;;;;;;4988661;28;20038;-77
2022/10/02 06:26:24;;;;;;;8.32;1.92;;;13.60;99.90;;;;;;5001994;28;20038;-78
2022/10/02 06:29:17;;;;;;;6.72;1.63;;;13.70;99.90;;;;;;4996025;28;20109;-69
2022/10/02 06:31:49;;;;;;;10.55;2.33;;;13.70;99.90;;;;;;4985369;28;20026;-69
2022/10/02 06:34:18;;;;;;;6.50;1.95;;;13.70;99.90;;;;;;4989928;28;20030;-69
2022/10/02 06:37:07;;;;;;;5.10;1.88;;;13.70;99.90;;;;;;4987929;28;20034;-69
2022/10/02 06:39:58;;;;;;;7.93;1.80;;;13.70;99.90;;;;;;4986555;28;20018;-69
2022/10/02 06:42:49;;;;;;;9.20;2.15;;;13.80;99.90;;;;;;4986699;28;20487;-69
2022/10/02 06:45:51;;;;;;;8.52;2.00;;;13.80;99.90;;;;;;4991819;28;20045;-68
2022/10/02 06:48:23;;;;;;;10.57;2.40;;;13.80;99.90;;;;;;4982441;28;20535;-68
2022/10/02 06:51:13;;;;;;;4.38;1.73;;;13.90;99.90;;;;;;4975075;28;20034;-68
2022/10/02 06:54:01;;;;;;;8.43;2.50;;;13.90;99.90;;;;;;4991096;28;20129;-69
2022/10/02 06:56:32;;;;;;;9.27;2.55;;;14.00;99.90;;;;;;4991933;23;20057;-75
2022/10/02 06:59:13;;;;;;;5.57;1.70;;;14.00;99.90;;;;;;5027749;28;20022;-76
2022/10/02 07:01:51;;;;;;;5.85;1.40;;;14.10;99.90;;;;;;5045108;28;20021;-75
2022/10/02 07:04:44;;;;;;;8.75;1.80;;;14.10;99.90;;;;;;5030164;28;20451;-75
2022/10/02 07:07:48;;;;;;;4.38;1.45;;;14.20;99.90;;;;;;5029778;28;20279;-75
2022/10/02 07:10:36;;;;;;;7.70;2.58;;;14.20;99.90;;;;;;5027191;28;20021;-75
2022/10/02 07:13:35;;;;;;;10.52;2.05;;;14.30;99.90;;;;;;5030395;28;20040;-76
2022/10/02 07:16:16;;;;;;;6.65;2.13;;;14.30;99.90;;;;;;5032397;28;20021;-75
2022/10/02 07:19:23;;;;;;;11.02;2.97;;;14.40;99.90;;;;;;5047295;28;20116;-75
2022/10/02 07:22:13;;;;;;;9.43;2.05;;;14.40;99.90;;;;;;5024019;28;20560;-75
2022/10/02 07:25:20;;;;;;;9.23;1.73;;;14.40;99.90;;;;;;5028447;28;20124;-75
2022/10/02 07:27:59;;;;;;;9.48;2.13;;;14.50;99.90;;;;;;5026937;28;20029;-75
2022/10/02 07:30:53;;;;;;;5.47;1.65;;;14.50;99.90;;;;;;5045875;28;20032;-75
2022/10/02 07:33:52;;;;;;;10.13;2.17;;;14.60;99.90;;;;;;5022864;28;20096;-75
2022/10/02 07:36:29;;;;;;;6.50;1.88;;;14.60;99.90;;;;;;5027584;28;20099;-74
2022/10/02 07:39:32;;;;;;;5.57;2.30;;;14.60;99.90;;;;;;5024287;28;20032;-76
2022/10/02 07:42:17;;;;;;;10.00;2.25;;;14.70;99.90;;;;;;5027179;28;20022;-73
2022/10/02 07:44:55;;;;;;;6.65;1.83;;;14.90;99.90;;;;;;5026758;28;20037;-75
2022/10/02 07:47:23;;;;;;;3.30;1.30;;;14.90;99.90;;;;;;5023828;28;20405;-75
2022/10/02 07:50:01;;;;;;;5.90;2.10;;;15.00;99.90;;;;;;5028603;28;20025;-75
2022/10/02 07:53:07;;;;;;;4.25;1.42;;;15.20;99.90;;;;;;5025424;28;20033;-76
2022/10/02 07:55:40;;;;;;;4.38;1.40;;;15.30;99.90;;;;;;5042850;28;20025;-76
2022/10/02 07:58:21;;;;;;;7.47;2.10;;;15.30;99.90;;;;;;5024354;28;20022;-75
2022/10/02 08:00:54;;;;;;;3.38;1.30;;;15.40;99.90;;;;;;5020983;28;20028;-77
2022/10/02 08:03:38;;;;;;;4.82;1.50;;;15.40;99.90;;;;;;5021057;28;20099;-76
2022/10/02 08:06:05;;;;;;;7.10;1.40;;;15.50;99.90;;;;;;5026137;28;20075;-76
2022/10/02 08:08:55;;;;;;;3.38;1.10;;;15.60;99.90;;;;;;5026873;28;20091;-76
2022/10/02 08:11:31;;;;;;;6.15;1.33;;;15.70;99.90;;;;;;5030010;28;20037;-77
2022/10/02 08:14:18;;;;;;;6.88;1.40;;;15.80;99.90;;;;;;5028709;28;20036;-76
2022/10/02 08:16:56;;;;;;;4.50;0.85;;;15.90;99.90;;;;;;5021112;28;20025;-76
2022/10/02 08:19:40;;;;;;;3.47;0.80;;;16.00;99.90;;;;;;5026581;28;20608;-74
2022/10/02 08:23:05;;;;;;;3.17;0.90;;;16.10;99.90;;;;;;5027489;28;20024;-76
2022/10/02 08:25:44;;;;;;;2.40;0.90;;;16.30;99.90;;;;;;4987007;28;20088;-73
2022/10/02 08:28:21;;;;;;;5.50;1.02;;;16.40;99.90;;;;;;4991469;28;20031;-77
2022/10/02 08:30:50;;;;;;;4.25;1.10;;;16.60;99.90;;;;;;5020126;28;20037;-77
2022/10/02 08:33:22;;;;;;;3.20;1.00;;;16.80;99.90;;;;;;5026223;28;20030;-72
2022/10/02 08:36:15;;;;;;;1.88;0.75;;;16.80;99.90;;;;;;5021552;28;20029;-76
2022/10/02 08:38:49;;;;;;;4.13;1.00;;;17.00;99.90;;;;;;5020760;28;20132;-73
2022/10/02 08:41:30;;;;;;;2.60;0.88;;;17.10;99.90;;;;;;5025713;28;20029;-76
2022/10/02 08:43:59;;;;;;;2.03;0.57;;;17.30;99.90;;;;;;5029386;28;20173;-74
2022/10/02 08:46:36;;;;;;;3.40;0.98;;;17.50;99.90;;;;;;5028781;28;20041;-74
2022/10/02 08:49:39;;;;;;;3.78;0.80;;;17.60;99.90;;;;;;5022528;28;20477;-75
2022/10/02 08:52:36;;;;;;;2.75;0.85;;;17.80;99.90;;;;;;5028943;28;20030;-76
2022/10/02 08:55:10;;;;;;;2.50;0.80;;;18.00;99.90;;;;;;5025918;28;20076;-76
2022/10/02 08:58:01;;;;;;;3.80;0.98;;;18.10;99.90;;;;;;5024463;28;20101;-77
2022/10/02 09:01:08;;;;;;;1.05;0.60;;;18.20;99.90;;;;;;5029335;28;20041;-76
2022/10/02 09:04:12;;;;;;;0.30;0.30;;;18.20;99.90;;;;;;5028100;28;20485;-78
2022/10/02 09:07:02;;;;;;;4.37;0.70;;;18.20;99.90;;;;;;5027842;28;20067;-75
2022/10/02 09:09:44;;;;;;;3.08;0.88;;;18.20;99.90;;;;;;5023083;28;20057;-76
2022/10/02 09:12:16;;;;;;;2.22;0.80;;;18.10;99.90;;;;;;5030249;28;20014;-76
2022/10/02 09:15:01;;;;;;;2.10;0.60;;;18.10;99.90;;;;;;5030012;28;20049;-76
2022/10/02 09:17:50;;;;;;;3.50;0.60;;;18.10;99.90;;;;;;5026232;28;20486;-75
2022/10/02 09:20:28;;;;;;;2.75;0.80;;;18.20;99.90;;;;;;5022437;28;20026;-76
2022/10/02 09:22:56;;;;;;;2.22;0.60;;;18.20;99.90;;;;;;5028724;28;20124;-75
2022/10/02 09:26:00;;;;;;;1.65;0.70;;;18.20;99.90;;;;;;5032627;28;20063;-76
2022/10/02 09:28:42;;;;;;;2.80;0.73;;;18.30;99.90;;;;;;5032195;28;20040;-76
2022/10/02 09:31:28;;;;;;;3.88;0.60;;;18.40;99.90;;;;;;5026753;28;20042;-77
2022/10/02 09:37:09;;;;;;;1.58;0.50;;;18.50;99.90;;;;;;5036079;28;20107;-77
2022/10/02 09:39:50;;;;;;;5.22;0.55;;;18.60;99.90;;;;;;5031308;28;20037;-77
2022/10/02 09:42:43;;;;;;;2.00;0.50;;;18.70;99.90;;;;;;5033474;28;20021;-77
2022/10/02 09:45:26;;;;;;;1.08;0.50;;;18.70;99.90;;;;;;5031976;28;20029;-77
2022/10/02 09:48:29;;;;;;;0.47;0.40;;;18.90;99.90;;;;;;5031430;28;20083;-77
2022/10/02 09:51:16;;;;;;;3.15;0.60;;;19.20;99.90;;;;;;5026871;28;20039;-76
2022/10/02 09:54:24;;;;;;;0.95;0.60;;;19.30;99.90;;;;;;5033455;28;20945;-77
2022/10/02 09:57:30;;;;;;;0.52;0.40;;;19.40;99.90;;;;;;5033182;28;20097;-77
2022/10/02 10:00:14;;;;;;;0.82;0.55;;;19.40;99.90;;;;;;5032265;28;20028;-76
2022/10/02 10:03:17;;;;;;;0.60;0.38;;;19.50;99.90;;;;;;5030337;28;20092;-78
2022/10/02 10:06:20;;;;;;;2.50;0.57;;;19.50;99.90;;;;;;5023824;28;20060;-77
2022/10/02 10:09:05;;;;;;;0.73;0.43;;;19.60;99.90;;;;;;5028710;28;20104;-77
2022/10/02 10:12:08;;;;;;;0.93;0.50;;;19.60;99.90;;;;;;5029864;28;20487;-77
2022/10/02 10:15:04;;;;;;;0.80;0.50;;;19.50;99.90;;;;;;5031317;28;20040;-75
2022/10/02 10:17:55;;;;;;;1.42;0.43;;;19.60;99.90;;;;;;5031648;28;20546;-76
2022/10/02 10:20:50;;;;;;;2.33;0.50;;;19.70;99.90;;;;;;5025823;28;20076;-77
2022/10/02 10:23:58;;;;;;;0.80;0.50;;;19.70;99.90;;;;;;5042279;28;20036;-76
2022/10/02 10:26:42;;;;;;;0.90;0.63;;;19.80;99.90;;;;;;4958678;28;20048;-77
2022/10/02 10:29:38;;;;;;;0.50;0.20;;;19.80;99.90;;;;;;5034696;28;20474;-77
2022/10/02 10:32:55;;;;;;;6.60;0.30;;;19.80;99.90;;;;;;5030155;28;20044;-75
2022/10/02 10:35:58;;;;;;;0.77;0.40;;;19.80;99.90;;;;;;5026249;28;20151;-77
2022/10/02 10:38:52;;;;;;;0.45;0.40;;;19.80;99.90;;;;;;5030203;28;20091;-75
2022/10/02 10:41:45;;;;;;;0.88;0.40;;;19.80;99.90;;;;;;5032150;28;20036;-76
2022/10/02 10:44:29;;;;;;;2.38;0.68;;;19.80;99.90;;;;;;5028129;28;20478;-75
2022/10/02 10:47:42;;;;;;;0.95;0.30;;;19.80;99.90;;;;;;5029844;28;20037;-75
2022/10/02 10:50:26;;;;;;;0.85;0.43;;;19.80;99.90;;;;;;4997082;28;20116;-75
2022/10/02 10:53:03;;;;;;;0.95;0.63;;;19.70;99.90;;;;;;5029333;28;20029;-75
2022/10/02 10:55:28;;;;;;;0.50;0.45;;;19.70;99.90;;;;;;5029423;28;20049;-74
2022/10/02 11:01:52;;;;;;;0.65;0.30;;;19.70;99.90;;;;;;5026708;28;20045;-75
2022/10/02 11:04:45;;;;;;;0.55;0.28;;;19.70;99.90;;;;;;5028609;28;20057;-73
2022/10/02 11:07:26;;;;;;;1.58;0.50;;;19.70;99.90;;;;;;5028625;28;20025;-76
2022/10/02 11:10:32;;;;;;;1.70;0.30;;;19.70;99.90;;;;;;5027800;28;20037;-74
2022/10/02 11:13:21;;;;;;;0.50;0.30;;;19.70;99.90;;;;;;5031214;28;20060;-74
2022/10/02 11:15:59;;;;;;;0.30;0.22;;;19.80;99.90;;;;;;5022889;28;20042;-76
2022/10/02 11:19:03;;;;;;;0.60;0.40;;;19.90;99.90;;;;;;5044177;28;20053;-75
2022/10/02 11:21:48;;;;;;;0.60;0.40;;;19.90;99.90;;;;;;5028478;28;20066;-76
2022/10/02 11:24:56;;;;;;;0.88;0.45;;;20.00;99.90;;;;;;5030016;28;20033;-76
2022/10/02 11:27:56;;;;;;;0.68;0.25;;;20.10;99.90;;;;;;5029486;28;20667;-78
2022/10/02 11:30:53;;;;;;;0.52;0.40;;;20.10;99.90;;;;;;5029963;28;20425;-77
2022/10/02 11:33:53;;;;;;;0.50;0.40;;;20.30;99.90;;;;;;5031096;28;20029;-76
2022/10/02 11:36:57;;;;;;;0.75;0.40;;;20.40;99.90;;;;;;5029291;28;20104;-75
2022/10/02 11:39:56;;;;;;;1.90;0.80;;;20.40;99.90;;;;;;5029981;28;20045;-76
2022/10/02 11:42:38;;;;;;;1.25;0.40;;;20.50;99.90;;;;;;5028242;28;20051;-74
2022/10/02 11:45:18;;;;;;;0.50;0.40;;;20.50;99.90;;;;;;5028433;28;20477;-77
2022/10/02 11:48:13;;;;;;;0.35;0.35;;;20.50;99.90;;;;;;5028807;28;20025;-75
2022/10/02 11:51:20;;;;;;;0.70;0.50;;;20.40;99.90;;;;;;5021282;28;20508;-74
2022/10/02 11:54:22;;;;;;;1.23;0.50;;;20.30;99.90;;;;;;5025278;28;20068;-75
2022/10/02 11:57:19;;;;;;;0.30;0.30;;;20.20;99.90;;;;;;5042179;28;20023;-75
2022/10/02 12:00:14;;;;;;;0.80;0.45;;;20.20;99.90;;;;;;5029040;28;20084;-76
2022/10/02 12:02:45;;;;;;;2.20;0.47;;;20.10;99.90;;;;;;5026100;28;20482;-76
2022/10/02 12:05:52;;;;;;;1.05;0.52;;;20.10;99.90;;;;;;5029195;28;20021;-76
2022/10/02 12:08:45;;;;;;;0.55;0.30;;;20.20;99.90;;;;;;5041829;28;20105;-76
2022/10/02 12:11:32;;;;;;;0.43;0.30;;;20.10;99.90;;;;;;5024422;28;21794;-76
2022/10/02 12:14:31;;;;;;;0.40;0.30;;;20.00;99.90;;;;;;5026924;28;20382;-76
2022/10/02 12:16:59;;;;;;;0.82;0.55;;;19.90;99.90;;;;;;4995621;28;20029;-75
2022/10/02 12:29:17;;;;;;;0.43;0.30;;;19.30;99.90;;;;;;5026909;28;20079;-76
2022/10/02 12:32:11;;;;;;;1.15;0.50;;;19.00;99.90;;;;;;5027138;28;20030;-75
2022/10/02 12:35:01;;;;;;;0.93;0.57;;;18.80;99.90;;;;;;5040103;28;20032;-76
2022/10/02 12:38:02;;;;;;;1.40;0.50;;;18.60;99.90;;;;;;5025775;28;20040;-76
2022/10/02 12:40:58;;;;;;;0.68;0.40;;;18.50;99.90;;;;;;5024258;28;20097;-76
2022/10/02 12:43:43;;;;;;;3.22;1.02;;;18.30;99.90;;;;;;5025529;28;20037;-75
2022/10/02 12:46:26;;;;;;;2.35;1.25;;;17.90;99.90;;;;;;5021971;28;20039;-76
2022/10/02 12:49:19;;;;;;;2.45;1.27;;;17.70;99.90;;;;;;5025877;28;20035;-75
2022/10/02 12:52:04;;;;;;;1.92;1.10;;;17.40;99.90;;;;;;5026304;28;20032;-75
2022/10/02 12:54:32;;;;;;;2.30;1.30;;;17.00;99.90;;;;;;5026577;28;20033;-75
2022/10/02 13:00:15;;;;;;;2.67;1.50;;;16.40;99.90;;;;;;5036432;28;20052;-78
2022/10/02 13:03:08;;;;;;;3.60;1.42;;;16.10;99.90;;;;;;5039033;28;20017;-77
2022/10/02 13:05:52;;;;;;;2.03;0.90;;;15.90;99.90;;;;;;5037974;28;20017;-78
2022/10/02 13:09:02;;;;;;;2.65;0.70;;;15.70;99.90;;;;;;5033222;28;20486;-77
2022/10/02 13:11:55;;;;;;;1.40;1.00;;;15.50;99.90;;;;;;5029588;28;20526;-77
2022/10/02 13:15:00;;;;;;;1.70;1.20;;;15.20;99.90;;;;;;5035634;28;20048;-77
2022/10/02 13:17:36;;;;;;;1.33;0.90;;;15.10;99.90;;;;;;5032110;28;20033;-77
2022/10/02 13:20:39;;;;;;;1.60;1.08;;;14.90;99.90;;;;;;5032127;28;20092;-77
2022/10/02 13:23:14;;;;;;;2.10;1.40;;;14.90;99.90;;;;;;5023941;28;20469;-78
2022/10/02 13:25:48;;;;;;;1.63;1.25;;;14.80;99.90;;;;;;5028459;28;20041;-77
2022/10/02 13:28:30;;;;;;;1.40;0.90;;;14.80;99.90;;;;;;5031161;28;20033;-77
2022/10/02 13:31:23;;;;;;;2.15;0.90;;;14.70;99.90;;;;;;5019566;28;20460;-77
2022/10/02 13:33:58;;;;;;;3.90;1.25;;;14.80;99.90;;;;;;5031300;28;20431;-76
2022/10/02 13:37:07;;;;;;;2.17;1.17;;;14.70;99.90;;;;;;5023387;28;20036;-77
2022/10/02 13:39:57;;;;;;;1.88;1.00;;;14.60;99.90;;;;;;5247979;22;20017;-76
2022/10/02 13:43:04;;;;;;;1.50;1.10;;;14.50;99.90;;;;;;5014497;28;20025;-75
2022/10/02 13:45:33;;;;;;;1.20;0.93;;;14.40;99.90;;;;;;4914964;29;20048;-75
2022/10/02 13:48:25;;;;;;;1.10;0.90;;;14.30;99.90;;;;;;4893205;29;20040;-75
2022/10/02 13:50:54;;;;;;;1.17;0.90;;;14.30;99.90;;;;;;4964448;28;20037;-75
2022/10/02 13:53:42;;;;;;;2.47;1.30;;;14.20;99.90;;;;;;4988521;28;20035;-75
2022/10/02 13:56:26;;;;;;;1.25;0.98;;;14.30;99.90;;;;;;5000328;28;20021;-75
2022/10/02 13:59:26;;;;;;;1.30;0.98;;;14.20;99.90;;;;;;5008164;28;20038;-75
2022/10/02 14:02:34;;;;;;;3.08;1.13;;;14.30;99.90;;;;;;4991947;28;20015;-75
2022/10/02 14:05:10;;;;;;;1.75;1.42;;;14.20;99.90;;;;;;4992175;28;20102;-75
2022/10/02 14:07:57;;;;;;;2.70;0.93;;;14.20;99.90;;;;;;5003853;28;20021;-75
2022/10/02 14:10:41;;;;;;;1.13;0.93;;;14.20;99.90;;;;;;4987387;28;20441;-75
2022/10/02 14:13:41;;;;;;;1.63;1.00;;;14.10;99.90;;;;;;5000682;28;20037;-75
2022/10/02 14:16:09;;;;;;;1.30;0.73;;;14.10;99.90;;;;;;4994908;28;20463;-75
2022/10/02 14:19:15;;;;;;;0.93;0.65;;;14.10;99.90;;;;;;4993429;28;20037;-75
2022/10/02 14:21:55;;;;;;;1.70;0.85;;;14.10;99.90;;;;;;4991587;28;20023;-75
2022/10/02 14:24:58;;;;;;;0.93;0.47;;;14.10;99.90;;;;;;4998747;28;20100;-75
2022/10/02 14:27:57;;;;;;;1.02;0.70;;;14.00;99.90;;;;;;4995692;28;20049;-75
2022/10/02 14:30:44;;;;;;;2.00;0.90;;;14.00;99.90;;;;;;4983003;28;20042;-75
2022/10/02 14:33:21;;;;;;;1.30;0.50;;;14.00;99.90;;;;;;4990092;28;20092;-75
2022/10/02 14:35:52;;;;;;;0.85;0.55;;;14.00;99.90;;;;;;5009004;28;20018;-75
2022/10/02 14:38:38;;;;;;;1.35;0.88;;;14.00;99.90;;;;;;4991771;28;20030;-75
2022/10/02 14:41:41;;;;;;;1.17;0.60;;;14.00;99.90;;;;;;4989476;28;20510;-75
2022/10/02 14:44:37;;;;;;;1.23;0.77;;;14.00;99.90;;;;;;5020452;28;20021;-75
2022/10/02 14:47:47;;;;;;;1.20;0.70;;;14.00;99.90;;;;;;4985228;28;20023;-75